Time;durP1;ratioP1;P1;durP2;ratioP2;P2;SDS_P1;SDS_P2;PMS_P1;PMS_P2;Temp;Humidity;BMP_temperature;BMP_pressure;BME280_temperature;BME280_humidity;BME280_pressure;Samples;Min_cycle;Max_cycle;Signal;HPM_P1;HPM_P2
2023/03/25 00:03:42;;;;;;;8.15;0.73;;;10.40;99.90;;;;;;6231620;22;20015;-84
2023/03/25 00:06:35;;;;;;;7.57;1.38;;;10.40;99.90;;;;;;6220578;22;20024;-86
2023/03/25 00:09:02;;;;;;;6.13;1.08;;;10.40;99.90;;;;;;6220435;22;20045;-92
2023/03/25 00:11:29;;;;;;;8.52;1.08;;;10.30;99.90;;;;;;6245305;22;20410;-90
2023/03/25 00:13:54;;;;;;;7.05;0.93;;;10.30;99.90;;;;;;6245424;22;20020;-85
2023/03/25 00:16:20;;;;;;;3.57;0.80;;;10.40;99.90;;;;;;6272300;22;20030;-88
2023/03/25 00:18:46;;;;;;;7.90;2.60;;;10.40;99.90;;;;;;6245130;22;20532;-87
2023/03/25 00:21:19;;;;;;;6.03;0.80;;;10.30;99.90;;;;;;6246112;22;20019;-91
2023/03/25 00:23:45;;;;;;;5.93;0.52;;;10.40;99.90;;;;;;6219929;22;20096;-86
2023/03/25 00:26:11;;;;;;;6.67;1.57;;;10.30;99.90;;;;;;6272182;22;20016;-84
2023/03/25 00:28:37;;;;;;;4.00;0.60;;;10.30;99.90;;;;;;6245244;22;20015;-90
2023/03/25 00:31:11;;;;;;;6.85;0.75;;;10.30;99.90;;;;;;6244807;22;20027;-85
2023/03/25 00:33:37;;;;;;;7.90;1.10;;;10.30;99.90;;;;;;6245022;22;20020;-94
2023/03/25 00:36:04;;;;;;;2.07;0.47;;;10.30;99.90;;;;;;6246462;22;20037;-87
2023/03/25 00:38:32;;;;;;;4.47;0.63;;;10.30;99.90;;;;;;6273384;22;20470;-84
2023/03/25 00:41:16;;;;;;;4.10;0.52;;;10.30;99.90;;;;;;6272431;22;20050;-89
2023/03/25 00:43:43;;;;;;;5.47;0.57;;;10.30;99.90;;;;;;6244978;22;20027;-85
2023/03/25 00:46:10;;;;;;;6.15;1.38;;;10.20;99.90;;;;;;6271068;22;20079;-85
2023/03/25 00:48:36;;;;;;;2.65;0.40;;;10.20;99.90;;;;;;6245566;22;20016;-86
2023/03/25 00:51:06;;;;;;;;;;;10.10;99.90;;;;;;6246670;22;20016;-93
2023/03/25 00:53:33;;;;;;;3.03;0.73;;;10.10;99.90;;;;;;6247887;22;19922;-84
2023/03/25 00:56:00;;;;;;;8.13;0.90;;;10.00;99.90;;;;;;6253467;22;20049;-84
2023/03/25 00:58:26;;;;;;;4.95;0.90;;;10.00;99.90;;;;;;6259395;22;20048;-88
2023/03/25 01:00:51;;;;;;;4.85;0.50;;;10.00;99.90;;;;;;6258966;22;20020;-86
2023/03/25 01:03:17;;;;;;;6.70;1.00;;;10.00;99.90;;;;;;6243385;23;20444;-92
2023/03/25 01:05:44;;;;;;;4.30;0.93;;;10.00;99.90;;;;;;6241448;22;20083;-87
2023/03/25 01:08:10;;;;;;;;;;;10.00;99.90;;;;;;6239835;23;20012;-93
2023/03/25 01:10:36;;;;;;;4.00;0.60;;;10.00;99.90;;;;;;6240466;23;19915;-94
2023/03/25 01:13:02;;;;;;;5.63;0.80;;;10.00;99.90;;;;;;6242533;22;20061;-88
2023/03/25 01:15:28;;;;;;;6.35;0.73;;;10.00;99.90;;;;;;6240768;23;20012;-87
2023/03/25 01:17:53;;;;;;;5.00;0.67;;;10.00;99.90;;;;;;6321249;22;20019;-88
2023/03/25 01:20:19;;;;;;;6.77;1.00;;;9.90;99.90;;;;;;6215796;22;20020;-86
2023/03/25 01:22:51;;;;;;;7.60;0.60;;;9.90;99.90;;;;;;6241109;22;20059;-95
2023/03/25 01:25:18;;;;;;;7.15;0.80;;;9.90;99.90;;;;;;6241783;23;20442;-95
2023/03/25 01:27:44;;;;;;;3.08;0.68;;;9.80;99.90;;;;;;6216456;22;20020;-90
2023/03/25 01:30:11;;;;;;;6.20;1.10;;;9.80;99.90;;;;;;6241377;22;20048;-88
2023/03/25 01:32:36;;;;;;;6.95;0.93;;;9.70;99.90;;;;;;6166551;22;20157;-93
2023/03/25 01:35:06;;;;;;;5.63;0.98;;;9.70;99.90;;;;;;6243549;22;20095;-93
2023/03/25 01:38:09;;;;;;;3.38;0.60;;;9.70;99.90;;;;;;6242466;23;20023;-93
2023/03/25 01:41:25;;;;;;;7.55;1.30;;;9.60;99.90;;;;;;6241916;22;20016;-90
2023/03/25 01:44:23;;;;;;;9.30;1.25;;;9.60;99.90;;;;;;6217681;22;20020;-91
2023/03/25 01:49:32;;;;;;;5.43;0.80;;;9.60;99.90;;;;;;6401391;22;20022;-94
2023/03/25 01:52:23;;;;;;;6.18;0.90;;;9.60;99.90;;;;;;6270715;22;20021;-96
2023/03/25 01:54:52;;;;;;;4.88;0.65;;;9.50;99.90;;;;;;6269586;22;20010;-89
2023/03/25 01:57:21;;;;;;;7.13;1.65;;;9.50;99.90;;;;;;6269077;22;20039;-91
2023/03/25 01:59:49;;;;;;;4.97;0.50;;;9.40;99.90;;;;;;6245676;22;20006;-88
2023/03/25 02:02:17;;;;;;;8.82;1.13;;;9.40;99.90;;;;;;6247915;22;20010;-92
2023/03/25 02:05:12;;;;;;;5.45;1.08;;;9.40;99.90;;;;;;6270552;22;20014;-94
2023/03/25 02:07:41;;;;;;;5.03;0.88;;;9.40;99.90;;;;;;6377258;22;20014;-89
2023/03/25 02:10:11;;;;;;;6.07;0.85;;;9.30;99.90;;;;;;6275780;22;20329;-86
2023/03/25 02:12:37;;;;;;;6.70;0.77;;;9.30;99.90;;;;;;6274214;22;20014;-86
2023/03/25 02:15:07;;;;;;;6.53;1.10;;;9.30;99.90;;;;;;6272908;22;20434;-85
2023/03/25 02:17:48;;;;;;;5.32;1.00;;;9.30;99.90;;;;;;6273030;22;20025;-85
2023/03/25 02:20:43;;;;;;;5.25;0.70;;;9.20;99.90;;;;;;6270765;22;20018;-89
2023/03/25 02:24:01;;;;;;;5.50;0.88;;;9.20;99.90;;;;;;6361092;22;20028;-92
2023/03/25 02:26:48;;;;;;;9.50;0.90;;;9.20;99.90;;;;;;6244738;22;20018;-87
2023/03/25 02:29:39;;;;;;;8.33;0.97;;;9.20;99.90;;;;;;6271343;22;20040;-93
2023/03/25 02:32:34;;;;;;;5.50;1.30;;;9.20;99.90;;;;;;6270357;22;20021;-88
2023/03/25 02:35:19;;;;;;;5.47;1.27;;;9.20;99.90;;;;;;6247382;22;20439;-88
2023/03/25 02:38:40;;;;;;;10.38;1.50;;;9.20;99.90;;;;;;6271573;22;20086;-87
2023/03/25 02:41:15;;;;;;;5.35;1.27;;;9.20;99.90;;;;;;6278923;22;20016;-87
2023/03/25 02:43:53;;;;;;;8.88;1.35;;;9.20;99.90;;;;;;6388110;22;20073;-86
2023/03/25 02:46:20;;;;;;;11.38;1.20;;;9.20;99.90;;;;;;6244858;22;20045;-86
2023/03/25 02:49:09;;;;;;;9.30;1.15;;;9.20;99.90;;;;;;6272009;22;20018;-89
2023/03/25 02:52:19;;;;;;;4.72;1.50;;;9.20;99.90;;;;;;6270618;22;20476;-96
2023/03/25 02:54:47;;;;;;;5.80;0.85;;;9.30;99.90;;;;;;6271926;22;20041;-92
2023/03/25 02:57:20;;;;;;;5.63;1.27;;;9.30;99.90;;;;;;6271832;22;20459;-89
2023/03/25 02:59:47;;;;;;;10.70;1.30;;;9.30;99.90;;;;;;6270605;22;20037;-91
2023/03/25 03:02:16;;;;;;;8.48;1.10;;;9.30;99.90;;;;;;6270087;22;20024;-85
2023/03/25 03:04:54;;;;;;;9.35;1.15;;;9.30;99.90;;;;;;6271301;22;20043;-88
2023/03/25 03:07:30;;;;;;;4.07;0.63;;;9.30;99.90;;;;;;6269505;22;20067;-94
2023/03/25 03:10:21;;;;;;;5.85;0.75;;;9.30;99.90;;;;;;6270674;22;20014;-86
2023/03/25 03:13:01;;;;;;;7.45;1.20;;;9.30;99.90;;;;;;6270396;22;20051;-89
2023/03/25 03:15:32;;;;;;;4.75;1.13;;;9.30;99.90;;;;;;6409739;22;20044;-95
2023/03/25 03:18:43;;;;;;;4.63;0.75;;;9.30;99.90;;;;;;6270034;22;20097;-91
2023/03/25 03:21:31;;;;;;;6.75;1.27;;;9.30;99.90;;;;;;6272307;22;20058;-86
2023/03/25 03:24:15;;;;;;;6.15;1.20;;;9.30;99.90;;;;;;6268482;22;20029;-88
2023/03/25 03:26:56;;;;;;;3.17;0.60;;;9.40;99.90;;;;;;6269736;22;20021;-90
2023/03/25 03:29:38;;;;;;;7.97;1.70;;;9.30;99.90;;;;;;6404664;22;20014;-92
2023/03/25 03:32:10;;;;;;;8.00;1.25;;;9.40;99.90;;;;;;6271035;22;20021;-95
2023/03/25 03:35:12;;;;;;;3.97;1.02;;;9.40;99.90;;;;;;6270696;22;20065;-86
2023/03/25 03:37:46;;;;;;;6.38;0.80;;;9.40;99.90;;;;;;6400378;22;20087;-93
2023/03/25 03:40:17;;;;;;;8.05;1.25;;;9.40;99.90;;;;;;6405899;22;20455;-88
2023/03/25 03:42:54;;;;;;;6.88;0.93;;;9.40;99.90;;;;;;6271245;22;20092;-85
2023/03/25 03:45:27;;;;;;;;;;;9.40;99.90;;;;;;6277309;22;20018;-86
2023/03/25 03:47:56;;;;;;;5.50;0.98;;;9.40;99.90;;;;;;6417680;22;19953;-84
2023/03/25 03:50:38;;;;;;;3.38;1.00;;;9.40;99.90;;;;;;6281797;22;20025;-85
2023/03/25 03:53:19;;;;;;;7.15;0.80;;;9.50;99.90;;;;;;6408354;22;20021;-84
2023/03/25 03:56:02;;;;;;;7.65;1.42;;;9.40;99.90;;;;;;6272651;22;20502;-92
2023/03/25 03:58:33;;;;;;;7.78;0.82;;;9.40;99.90;;;;;;6272274;22;20024;-88
2023/03/25 04:01:08;;;;;;;7.28;0.60;;;9.40;99.90;;;;;;6270941;22;20006;-88
2023/03/25 04:04:10;;;;;;;5.57;0.68;;;9.50;99.90;;;;;;6406276;22;20017;-88
2023/03/25 04:06:41;;;;;;;5.78;0.88;;;9.50;99.90;;;;;;6327307;22;20021;-92
2023/03/25 04:09:17;;;;;;;6.30;0.90;;;9.50;99.90;;;;;;6273236;22;20018;-84
2023/03/25 04:11:57;;;;;;;3.85;0.40;;;9.40;99.90;;;;;;6407350;22;20403;-89
2023/03/25 04:14:23;;;;;;;6.35;1.20;;;9.40;99.90;;;;;;6269314;22;20125;-86
2023/03/25 04:16:49;;;;;;;4.57;0.73;;;9.40;99.90;;;;;;6406976;22;20075;-88
2023/03/25 04:19:17;;;;;;;4.93;1.10;;;9.40;99.90;;;;;;6404499;22;20087;-91
2023/03/25 04:21:44;;;;;;;6.07;0.85;;;9.30;99.90;;;;;;6405209;22;20018;-92
2023/03/25 04:24:10;;;;;;;8.13;0.88;;;9.30;99.90;;;;;;6406986;22;20017;-94
2023/03/25 04:26:37;;;;;;;13.00;1.50;;;9.30;99.90;;;;;;6246061;22;20021;-89
2023/03/25 04:29:03;;;;;;;5.93;1.25;;;9.20;99.90;;;;;;6247403;22;20033;-90
2023/03/25 04:31:30;;;;;;;;;;;9.20;99.90;;;;;;6407984;22;20062;-84
2023/03/25 04:33:56;;;;;;;6.10;1.10;;;9.20;99.90;;;;;;6413357;22;20199;-96
2023/03/25 04:36:24;;;;;;;7.30;1.08;;;9.30;99.90;;;;;;6271062;22;20022;-94
2023/03/25 04:38:51;;;;;;;6.53;1.10;;;9.30;99.90;;;;;;6404888;22;20118;-90
2023/03/25 04:41:17;;;;;;;12.80;1.67;;;9.20;99.90;;;;;;6271941;22;20018;-92
2023/03/25 04:43:43;;;;;;;6.47;0.80;;;9.30;99.90;;;;;;6245234;22;20086;-86
2023/03/25 04:46:14;;;;;;;6.78;1.33;;;9.30;99.90;;;;;;6271781;22;20014;-96
2023/03/25 04:48:40;;;;;;;13.15;1.30;;;9.30;99.90;;;;;;6405014;22;20024;-95
2023/03/25 04:51:09;;;;;;;9.55;1.25;;;9.30;99.90;;;;;;6273255;22;20021;-90
2023/03/25 04:53:36;;;;;;;6.72;1.35;;;9.30;99.90;;;;;;6271098;22;20017;-89
2023/03/25 04:56:02;;;;;;;10.30;1.90;;;9.30;99.90;;;;;;6270017;22;20018;-93
2023/03/25 04:58:28;;;;;;;8.52;1.02;;;9.30;99.90;;;;;;6405706;22;20323;-90
2023/03/25 05:00:53;;;;;;;4.60;1.40;;;9.30;99.90;;;;;;6219824;22;20043;-90
2023/03/25 05:03:23;;;;;;;7.43;1.10;;;9.20;99.90;;;;;;6268200;22;20022;-86
2023/03/25 05:05:52;;;;;;;9.20;1.30;;;9.20;99.90;;;;;;6270178;22;20446;-83
2023/03/25 05:08:20;;;;;;;7.03;0.98;;;9.20;99.90;;;;;;6268554;22;20016;-88
2023/03/25 05:10:46;;;;;;;7.30;1.00;;;9.20;99.90;;;;;;6245158;22;20075;-95
2023/03/25 05:13:11;;;;;;;9.55;1.50;;;9.20;99.90;;;;;;6269155;22;20321;-89
2023/03/25 05:15:38;;;;;;;6.90;1.00;;;9.20;99.90;;;;;;6269080;22;20067;-95
2023/03/25 05:18:09;;;;;;;8.55;1.95;;;9.20;99.90;;;;;;6268764;22;20477;-84
2023/03/25 05:20:41;;;;;;;8.10;1.42;;;9.20;99.90;;;;;;6243393;22;20368;-89
2023/03/25 05:23:11;;;;;;;3.78;0.70;;;9.20;99.90;;;;;;6244983;22;20102;-84
2023/03/25 05:25:41;;;;;;;6.80;0.90;;;9.20;99.90;;;;;;6268518;22;20014;-83
2023/03/25 05:28:12;;;;;;;9.05;1.25;;;9.20;99.90;;;;;;6267729;22;20068;-86
2023/03/25 05:30:44;;;;;;;6.03;1.33;;;9.20;99.90;;;;;;6243739;22;20014;-84
2023/03/25 05:33:14;;;;;;;7.97;0.98;;;9.20;99.90;;;;;;6267434;22;20384;-86
2023/03/25 05:35:41;;;;;;;6.35;1.10;;;9.20;99.90;;;;;;6270953;22;20014;-87
2023/03/25 05:38:08;;;;;;;8.30;1.33;;;9.20;99.90;;;;;;6270041;22;20021;-86
2023/03/25 05:40:35;;;;;;;7.85;1.50;;;9.20;99.90;;;;;;6267884;22;20014;-95
2023/03/25 05:43:02;;;;;;;4.70;0.90;;;9.30;99.90;;;;;;6269522;22;20014;-94
2023/03/25 05:45:28;;;;;;;8.18;1.25;;;9.30;99.90;;;;;;6266804;22;20021;-86
2023/03/25 05:47:54;;;;;;;6.82;1.13;;;9.30;99.90;;;;;;6269758;22;20014;-93
2023/03/25 05:50:20;;;;;;;9.10;1.30;;;9.30;99.90;;;;;;6269060;22;20024;-86
2023/03/25 05:52:50;;;;;;;7.18;0.90;;;9.30;99.90;;;;;;6404191;22;20014;-85
2023/03/25 05:55:19;;;;;;;6.40;1.10;;;9.30;99.90;;;;;;6245979;22;20021;-86
2023/03/25 05:57:45;;;;;;;8.68;1.52;;;9.30;99.90;;;;;;6268714;22;20014;-93
2023/03/25 06:00:11;;;;;;;6.63;1.30;;;9.30;99.90;;;;;;6268957;22;20093;-89
2023/03/25 06:02:41;;;;;;;9.90;1.88;;;9.30;99.90;;;;;;6270119;22;20018;-87
2023/03/25 06:05:08;;;;;;;5.28;1.15;;;9.30;99.90;;;;;;6245630;22;20043;-84
2023/03/25 06:07:38;;;;;;;9.52;1.83;;;9.30;99.90;;;;;;6270328;22;20018;-96
2023/03/25 06:10:05;;;;;;;10.57;1.83;;;9.30;99.90;;;;;;6269369;22;20077;-88
2023/03/25 06:12:37;;;;;;;10.18;0.90;;;9.30;99.90;;;;;;6403520;22;20047;-87
2023/03/25 06:15:08;;;;;;;8.27;0.95;;;9.30;99.90;;;;;;6246371;22;20435;-87
2023/03/25 06:17:37;;;;;;;7.22;1.38;;;9.30;99.90;;;;;;6267566;22;20022;-92
2023/03/25 06:20:09;;;;;;;11.35;0.93;;;9.30;99.90;;;;;;6404066;22;20014;-85
2023/03/25 06:22:41;;;;;;;5.97;0.98;;;9.30;99.90;;;;;;6269155;22;20089;-83
2023/03/25 06:25:08;;;;;;;10.80;1.50;;;9.30;99.90;;;;;;6404379;22;20021;-93
2023/03/25 06:27:39;;;;;;;9.95;1.60;;;9.30;99.90;;;;;;6403537;22;20071;-86
2023/03/25 06:30:16;;;;;;;11.43;1.20;;;9.30;99.90;;;;;;6245556;22;20017;-91
2023/03/25 06:32:41;;;;;;;7.80;1.17;;;9.30;99.90;;;;;;6272831;22;20043;-85
2023/03/25 06:35:09;;;;;;;5.73;0.83;;;9.30;99.90;;;;;;6280033;22;20018;-86
2023/03/25 06:37:35;;;;;;;5.03;1.20;;;9.30;99.90;;;;;;6415332;22;20509;-84
2023/03/25 06:40:01;;;;;;;7.50;1.05;;;9.30;99.90;;;;;;6410287;22;20013;-93
2023/03/25 06:42:27;;;;;;;6.23;0.70;;;9.30;99.90;;;;;;6273048;22;20040;-84
2023/03/25 06:44:54;;;;;;;7.13;1.10;;;9.30;99.90;;;;;;6275111;22;20014;-84
2023/03/25 06:47:21;;;;;;;6.93;0.75;;;9.20;99.90;;;;;;6247146;22;20013;-92
2023/03/25 06:49:47;;;;;;;6.53;1.02;;;9.10;99.90;;;;;;6244697;22;20022;-94
2023/03/25 06:52:13;;;;;;;6.10;0.90;;;9.00;99.90;;;;;;6271747;22;20483;-96
2023/03/25 06:54:40;;;;;;;5.00;1.20;;;8.90;99.90;;;;;;6271980;22;20074;-87
2023/03/25 06:57:06;;;;;;;8.87;1.43;;;8.80;99.90;;;;;;6223055;22;20021;-87
2023/03/25 06:59:31;;;;;;;5.70;1.10;;;8.80;99.90;;;;;;6270873;22;20085;-84
2023/03/25 07:01:58;;;;;;;5.13;1.00;;;8.80;99.90;;;;;;6409975;22;20017;-87
2023/03/25 07:04:23;;;;;;;13.00;1.30;;;8.80;99.90;;;;;;6270078;22;20097;-82
2023/03/25 07:06:49;;;;;;;8.27;1.03;;;8.80;99.90;;;;;;6268573;22;20013;-83
2023/03/25 07:09:15;;;;;;;7.03;0.88;;;8.80;99.90;;;;;;6246007;22;20014;-89
2023/03/25 07:11:42;;;;;;;4.57;0.88;;;8.80;99.90;;;;;;6247662;22;20132;-96
2023/03/25 07:14:07;;;;;;;7.28;0.82;;;8.90;99.90;;;;;;6245879;22;20014;-93
2023/03/25 07:16:33;;;;;;;7.07;1.10;;;8.90;99.90;;;;;;6270770;22;20025;-94
2023/03/25 07:18:59;;;;;;;6.50;1.10;;;9.00;99.90;;;;;;6270841;22;20503;-91
2023/03/25 07:21:25;;;;;;;8.93;1.30;;;9.00;99.90;;;;;;6406725;22;20039;-94
2023/03/25 07:23:51;;;;;;;6.18;0.85;;;9.10;99.90;;;;;;6247683;22;20024;-87
2023/03/25 07:26:17;;;;;;;7.40;1.08;;;9.20;99.90;;;;;;6246949;22;20073;-96
2023/03/25 07:28:43;;;;;;;6.20;0.87;;;9.30;99.90;;;;;;6407884;22;20055;-88
2023/03/25 07:31:11;;;;;;;7.28;1.10;;;9.30;99.90;;;;;;6405481;22;20243;-87
2023/03/25 07:33:36;;;;;;;4.65;0.90;;;9.30;99.90;;;;;;6271146;22;20010;-87
2023/03/25 07:36:05;;;;;;;3.88;0.70;;;9.30;99.90;;;;;;6270021;22;20018;-93
2023/03/25 07:38:31;;;;;;;8.15;1.33;;;9.20;99.90;;;;;;6245667;22;20383;-91
2023/03/25 07:40:57;;;;;;;4.70;1.20;;;9.10;99.90;;;;;;6269242;22;20021;-93
2023/03/25 07:43:23;;;;;;;5.07;0.80;;;9.00;99.90;;;;;;6245390;22;20061;-89
2023/03/25 07:45:52;;;;;;;5.13;0.77;;;9.00;99.90;;;;;;6270110;22;20484;-87
2023/03/25 07:48:18;;;;;;;6.63;1.17;;;8.90;99.90;;;;;;6406755;22;20045;-88
2023/03/25 07:50:44;;;;;;;2.97;0.50;;;8.80;99.90;;;;;;6407366;22;20025;-93
2023/03/25 07:53:10;;;;;;;3.13;0.80;;;8.80;99.90;;;;;;6272005;22;20089;-92
2023/03/25 07:55:36;;;;;;;2.53;0.67;;;8.70;99.90;;;;;;6195875;22;20021;-87
2023/03/25 07:58:02;;;;;;;9.17;1.03;;;8.70;99.90;;;;;;6406239;22;20395;-88
2023/03/25 08:00:29;;;;;;;6.78;1.35;;;8.70;99.90;;;;;;6219159;22;20010;-86
2023/03/25 08:02:55;;;;;;;5.28;0.75;;;8.70;99.90;;;;;;6220236;22;20079;-88
2023/03/25 08:05:21;;;;;;;5.70;0.90;;;8.70;99.90;;;;;;6269044;22;20022;-88
2023/03/25 08:07:48;;;;;;;2.30;0.77;;;8.70;99.90;;;;;;6244131;22;20018;-92
2023/03/25 08:10:14;;;;;;;;;;;8.70;99.90;;;;;;6269476;22;20014;-93
2023/03/25 08:12:40;;;;;;;4.82;0.80;;;8.70;99.90;;;;;;6243243;22;19922;-87
2023/03/25 08:15:07;;;;;;;4.22;0.60;;;8.80;99.90;;;;;;6268006;22;20017;-89
2023/03/25 08:17:33;;;;;;;3.35;0.60;;;8.90;99.90;;;;;;6242631;22;20451;-84
2023/03/25 08:19:59;;;;;;;2.83;0.67;;;8.90;99.90;;;;;;6267734;22;20039;-93
2023/03/25 08:22:28;;;;;;;7.55;0.77;;;8.90;99.90;;;;;;6266825;22;20021;-91
2023/03/25 08:24:54;;;;;;;3.88;0.70;;;8.90;99.90;;;;;;6243428;22;20010;-84
2023/03/25 08:27:20;;;;;;;5.27;0.63;;;8.90;99.90;;;;;;6218206;22;20415;-89
2023/03/25 08:29:53;;;;;;;3.60;0.68;;;8.90;99.90;;;;;;6242310;22;20015;-88
2023/03/25 08:32:19;;;;;;;5.20;0.65;;;8.90;99.90;;;;;;6244097;22;20028;-93
2023/03/25 08:34:45;;;;;;;4.97;1.15;;;8.90;99.90;;;;;;6268224;22;20009;-90
2023/03/25 08:37:11;;;;;;;4.27;0.77;;;8.90;99.90;;;;;;6270328;22;20097;-91
2023/03/25 08:39:38;;;;;;;5.83;1.23;;;8.90;99.90;;;;;;6407732;22;20025;-90
2023/03/25 08:42:06;;;;;;;3.17;0.68;;;8.90;99.90;;;;;;6407600;22;20050;-92
2023/03/25 08:44:32;;;;;;;6.50;1.42;;;8.90;99.90;;;;;;6271846;22;20014;-95
2023/03/25 08:46:57;;;;;;;3.53;0.60;;;8.90;99.90;;;;;;6245237;22;20109;-89
2023/03/25 08:49:23;;;;;;;7.47;1.23;;;8.90;99.90;;;;;;6245754;22;20022;-89
2023/03/25 08:51:49;;;;;;;9.23;1.00;;;8.90;99.90;;;;;;6243621;22;20089;-90
2023/03/25 08:54:16;;;;;;;10.03;1.00;;;8.90;99.90;;;;;;6270561;22;20025;-90
2023/03/25 08:56:41;;;;;;;8.32;1.00;;;8.90;99.90;;;;;;6274311;22;20014;-91
2023/03/25 08:59:07;;;;;;;6.87;1.00;;;9.00;99.90;;;;;;6270882;22;20364;-86
2023/03/25 09:01:33;;;;;;;6.77;1.30;;;9.00;99.90;;;;;;6244407;22;20014;-86
2023/03/25 09:03:59;;;;;;;6.83;1.10;;;9.00;99.90;;;;;;6404527;22;20316;-85
2023/03/25 09:06:24;;;;;;;12.30;2.10;;;9.00;99.90;;;;;;6268055;22;20293;-91
2023/03/25 09:08:51;;;;;;;2.80;0.90;;;9.10;99.90;;;;;;6269227;22;20070;-95
2023/03/25 09:11:17;;;;;;;10.82;1.10;;;9.20;99.90;;;;;;6267595;22;20272;-92
2023/03/25 09:13:43;;;;;;;3.00;0.68;;;9.40;99.90;;;;;;6270282;22;20052;-93
2023/03/25 09:16:09;;;;;;;7.03;0.93;;;9.60;99.90;;;;;;6405004;22;20018;-84
2023/03/25 09:18:35;;;;;;;7.43;0.95;;;9.70;99.90;;;;;;6269685;22;20048;-84
2023/03/25 09:21:02;;;;;;;5.97;1.08;;;9.70;99.90;;;;;;6245384;22;20073;-92
2023/03/25 09:23:28;;;;;;;;;;;9.80;99.90;;;;;;6272152;22;20651;-86
2023/03/25 09:25:55;;;;;;;10.40;1.95;;;9.90;99.90;;;;;;6276605;22;19935;-84
2023/03/25 09:28:21;;;;;;;5.57;0.90;;;10.00;99.90;;;;;;6279933;22;20017;-83
2023/03/25 09:30:46;;;;;;;6.87;0.97;;;10.10;99.90;;;;;;6278485;22;20352;-83
2023/03/25 09:33:13;;;;;;;6.13;0.70;;;10.20;99.90;;;;;;6247766;22;20070;-87
2023/03/25 09:35:39;;;;;;;5.63;0.75;;;10.20;99.90;;;;;;6245684;22;20074;-83
2023/03/25 09:38:07;;;;;;;4.30;1.00;;;10.30;99.90;;;;;;6269740;22;20046;-90
2023/03/25 09:40:33;;;;;;;4.40;0.70;;;10.20;99.90;;;;;;6270057;22;20014;-93
2023/03/25 09:43:15;;;;;;;9.82;1.13;;;10.20;99.90;;;;;;6269773;22;20022;-90
2023/03/25 09:45:47;;;;;;;5.47;0.60;;;10.20;99.90;;;;;;6269606;22;20096;-89
2023/03/25 09:48:26;;;;;;;6.00;1.10;;;10.20;99.90;;;;;;6268832;22;20066;-88
2023/03/25 09:50:52;;;;;;;3.33;0.55;;;10.10;99.90;;;;;;6269720;22;20018;-94
2023/03/25 09:53:36;;;;;;;3.63;0.87;;;10.10;99.90;;;;;;6267114;22;20018;-85
2023/03/25 09:56:05;;;;;;;5.32;0.70;;;10.10;99.90;;;;;;6268505;22;20026;-92
2023/03/25 09:58:47;;;;;;;4.65;0.82;;;10.10;99.90;;;;;;6270660;22;20029;-93
2023/03/25 10:01:50;;;;;;;3.95;0.82;;;10.10;99.90;;;;;;6245051;22;20029;-88
2023/03/25 10:04:22;;;;;;;6.13;0.80;;;10.20;99.90;;;;;;6269452;22;20022;-90
2023/03/25 10:06:54;;;;;;;5.88;1.10;;;10.20;99.90;;;;;;6268967;22;20052;-89
2023/03/25 10:09:43;;;;;;;4.32;0.60;;;10.30;99.90;;;;;;6270027;22;20018;-88
2023/03/25 10:12:18;;;;;;;4.15;0.50;;;10.30;99.90;;;;;;6270352;22;20247;-93
2023/03/25 10:15:01;;;;;;;8.23;1.65;;;10.30;99.90;;;;;;6269428;22;20020;-92
2023/03/25 10:18:03;;;;;;;3.97;0.70;;;10.20;99.90;;;;;;6243552;22;20010;-91
2023/03/25 10:20:51;;;;;;;6.80;0.70;;;10.10;99.90;;;;;;6270377;22;20085;-91
2023/03/25 10:23:29;;;;;;;4.55;0.68;;;10.00;99.90;;;;;;6269700;22;20324;-90
2023/03/25 10:26:01;;;;;;;4.13;0.82;;;10.00;99.90;;;;;;6268482;22;20081;-93
2023/03/25 10:28:32;;;;;;;3.63;0.80;;;10.00;99.90;;;;;;6268911;22;20071;-88
2023/03/25 10:30:59;;;;;;;3.90;0.50;;;10.00;99.90;;;;;;6405387;22;20075;-84
2023/03/25 10:33:40;;;;;;;;;;;10.00;99.90;;;;;;6403754;22;20018;-94
2023/03/25 10:36:13;;;;;;;3.47;0.63;;;9.90;99.90;;;;;;6267407;22;19918;-90
2023/03/25 10:38:40;;;;;;;3.75;0.80;;;9.90;99.90;;;;;;6268856;22;20010;-96
2023/03/25 10:41:17;;;;;;;5.38;1.40;;;9.90;99.90;;;;;;6243035;22;20281;-95
2023/03/25 10:43:43;;;;;;;6.25;0.90;;;10.00;99.90;;;;;;6268028;22;20014;-85
2023/03/25 10:46:12;;;;;;;5.63;1.23;;;10.00;99.90;;;;;;6404593;22;20018;-94
2023/03/25 10:48:56;;;;;;;6.55;0.80;;;10.10;99.90;;;;;;6406133;22;20066;-90
2023/03/25 10:51:52;;;;;;;8.25;0.80;;;10.20;99.90;;;;;;6268640;22;20021;-86
2023/03/25 10:54:30;;;;;;;7.65;0.85;;;10.20;99.90;;;;;;6270730;22;20014;-93
2023/03/25 10:57:00;;;;;;;5.72;0.90;;;10.30;99.90;;;;;;6268940;22;20061;-89
2023/03/25 10:59:35;;;;;;;3.15;0.57;;;10.30;99.90;;;;;;6268754;22;20032;-86
2023/03/25 11:02:11;;;;;;;4.13;0.65;;;10.20;99.90;;;;;;6407233;22;20014;-96
2023/03/25 11:04:41;;;;;;;4.30;0.82;;;10.20;99.90;;;;;;6272161;22;20053;-92
2023/03/25 11:07:22;;;;;;;6.53;0.50;;;10.20;99.90;;;;;;6245562;22;20026;-93
2023/03/25 11:09:50;;;;;;;3.72;0.65;;;10.20;99.90;;;;;;6409198;22;20465;-90
2023/03/25 11:12:21;;;;;;;8.90;0.80;;;10.20;99.90;;;;;;6247116;22;20022;-91
2023/03/25 11:14:57;;;;;;;3.67;0.70;;;10.30;99.90;;;;;;6408928;22;20038;-90
2023/03/25 11:17:26;;;;;;;3.60;0.70;;;10.40;99.90;;;;;;6247216;22;20010;-89
2023/03/25 11:19:51;;;;;;;8.32;0.85;;;10.40;99.90;;;;;;6407600;22;20088;-90
2023/03/25 11:22:34;;;;;;;5.90;1.10;;;10.40;99.90;;;;;;6406133;22;20014;-90
2023/03/25 11:25:05;;;;;;;2.63;0.43;;;10.50;99.90;;;;;;6245077;22;20018;-95
2023/03/25 11:27:44;;;;;;;4.25;1.02;;;10.60;99.90;;;;;;6406700;22;20014;-88
2023/03/25 11:30:17;;;;;;;6.07;0.82;;;10.70;99.90;;;;;;6407756;22;20014;-92
2023/03/25 11:33:05;;;;;;;4.63;1.00;;;10.70;99.90;;;;;;6410018;22;20090;-86
2023/03/25 11:35:36;;;;;;;3.38;0.77;;;10.80;99.90;;;;;;6244825;22;20287;-89
2023/03/25 11:38:22;;;;;;;6.38;0.57;;;10.80;99.90;;;;;;6272047;22;20080;-91
2023/03/25 11:40:54;;;;;;;7.20;1.00;;;10.80;99.90;;;;;;6403015;22;20036;-83
2023/03/25 11:43:22;;;;;;;5.65;0.80;;;10.80;99.90;;;;;;6405863;22;20387;-91
2023/03/25 11:45:51;;;;;;;6.80;1.38;;;10.80;99.90;;;;;;6269409;22;20014;-89
2023/03/25 11:48:30;;;;;;;7.05;0.90;;;10.90;99.90;;;;;;6270918;22;20022;-83
2023/03/25 11:51:00;;;;;;;3.83;0.60;;;10.90;99.90;;;;;;6405914;22;20427;-92
2023/03/25 11:53:29;;;;;;;4.55;0.90;;;11.00;99.90;;;;;;6274015;22;20029;-86
2023/03/25 11:56:01;;;;;;;3.05;0.60;;;11.00;99.90;;;;;;6273389;22;20022;-86
2023/03/25 11:58:32;;;;;;;5.35;1.45;;;11.00;99.90;;;;;;6405953;22;20028;-92
2023/03/25 12:01:22;;;;;;;5.55;0.77;;;11.00;99.90;;;;;;6270190;22;20016;-93
2023/03/25 12:03:48;;;;;;;5.63;0.70;;;11.10;99.90;;;;;;6273322;22;20022;-89
2023/03/25 12:06:22;;;;;;;6.03;1.07;;;11.30;99.90;;;;;;6273967;22;20025;-89
2023/03/25 12:08:56;;;;;;;3.92;0.63;;;11.40;99.90;;;;;;6247420;22;20431;-88
2023/03/25 12:11:55;;;;;;;3.47;0.55;;;11.50;99.90;;;;;;6406372;22;20062;-92
2023/03/25 12:15:01;;;;;;;3.50;0.85;;;11.50;99.90;;;;;;6272817;22;20018;-85
2023/03/25 12:17:53;;;;;;;4.32;0.88;;;11.40;99.90;;;;;;6273451;22;20014;-84
2023/03/25 12:20:32;;;;;;;7.70;0.98;;;11.20;99.90;;;;;;6358102;22;20022;-85
2023/03/25 12:23:20;;;;;;;7.28;0.82;;;11.20;99.90;;;;;;6255499;22;20053;-83
2023/03/25 12:25:55;;;;;;;3.22;0.70;;;11.20;99.90;;;;;;6410899;22;20014;-90
2023/03/25 12:28:32;;;;;;;2.75;1.05;;;11.20;99.90;;;;;;6408825;22;20033;-93
2023/03/25 12:31:31;;;;;;;4.40;0.57;;;11.20;99.90;;;;;;6271134;22;20105;-87
2023/03/25 12:34:23;;;;;;;4.28;0.50;;;11.20;99.90;;;;;;6406291;22;20014;-90
2023/03/25 12:37:18;;;;;;;3.97;0.55;;;11.20;99.90;;;;;;6246442;22;20014;-93
2023/03/25 12:39:52;;;;;;;3.25;0.77;;;11.20;99.90;;;;;;6271638;22;20021;-89
2023/03/25 12:42:41;;;;;;;5.20;0.88;;;11.10;99.90;;;;;;6273432;22;20431;-87
2023/03/25 12:46:03;;;;;;;3.67;0.73;;;11.20;99.90;;;;;;6274838;22;20038;-87
2023/03/25 12:48:57;;;;;;;4.07;0.68;;;11.20;99.90;;;;;;6255407;22;20023;-90
2023/03/25 12:51:30;;;;;;;4.03;0.45;;;11.10;99.90;;;;;;6253561;22;20020;-89
2023/03/25 12:54:15;;;;;;;4.57;0.70;;;11.10;99.90;;;;;;6253531;22;20018;-88
2023/03/25 12:56:59;;;;;;;2.08;0.47;;;11.10;99.90;;;;;;6271583;22;20010;-89
2023/03/25 13:00:06;;;;;;;4.50;0.55;;;11.10;99.90;;;;;;6248533;22;20056;-92
2023/03/25 13:02:57;;;;;;;4.23;0.70;;;11.10;99.90;;;;;;6247803;22;20013;-87
2023/03/25 13:05:47;;;;;;;2.45;0.50;;;11.10;99.90;;;;;;6405676;22;20018;-89
2023/03/25 13:08:23;;;;;;;3.22;0.60;;;11.00;99.90;;;;;;6354782;22;20348;-91
2023/03/25 13:10:57;;;;;;;5.95;0.70;;;10.80;99.90;;;;;;6406216;22;20450;-89
2023/03/25 13:13:25;;;;;;;6.03;0.75;;;10.70;99.90;;;;;;6379175;22;20350;-87
2023/03/25 13:16:23;;;;;;;4.85;0.68;;;10.60;99.90;;;;;;6405081;22;20049;-90
2023/03/25 13:19:08;;;;;;;3.85;0.70;;;10.40;99.90;;;;;;6378927;22;20501;-92
2023/03/25 13:21:45;;;;;;;2.42;0.68;;;10.30;99.90;;;;;;6407513;22;20029;-90
2023/03/25 13:24:33;;;;;;;2.65;0.63;;;10.20;99.90;;;;;;6356787;22;20025;-92
2023/03/25 13:27:00;;;;;;;2.65;0.57;;;10.10;99.90;;;;;;6354060;22;20021;-93
2023/03/25 13:29:41;;;;;;;3.45;0.57;;;9.90;99.90;;;;;;6380084;22;20022;-91
2023/03/25 13:32:49;;;;;;;3.25;0.38;;;9.90;99.90;;;;;;6407924;22;20043;-94